DAL598 KATL-MMUN
Flight info
| Callsign | DAL598 |
|---|---|
| Flight time | 2h 8m |
| Altitude | 35000 |
| Route | BANNG3 LUCKK DCT BULZI DCT PLYER/N0456F340 DCT KNOST/N0462F360 M219 NAVVL L465 SHARQ UM463 WALKY UB879 NOSAT DCT CUN |
| Aircraft | A321/M-SDE3FGHIRWY/LB1 |
Departure
| Time | 2026-05-07 13:12 |
|---|---|
| Airport | Hartsfield Jackson Atlanta International Airport (KATL) |
Arrival
| Time | 2026-05-07 15:20 |
|---|---|
| Airport | Cancún International Airport (MMUN) |
| Time | Latitude | Longitude | Altitude | Speed | Heading |
|---|---|---|---|---|---|
| 2026-05-07 12:40 | 33.64127 | -84.42626 | 1036 ft | 0 kts | 90° |
| 2026-05-07 13:02 | 33.64127 | -84.42629 | 1035 ft | 3 kts | 90° |
| 2026-05-07 13:02 | 33.64127 | -84.42660 | 1035 ft | 4 kts | 90° |
| 2026-05-07 13:03 | 33.64128 | -84.42692 | 1035 ft | 4 kts | 103° |
| 2026-05-07 13:03 | 33.64138 | -84.42721 | 1035 ft | 4 kts | 132° |
| 2026-05-07 13:03 | 33.64157 | -84.42735 | 1035 ft | 2 kts | 179° |
| 2026-05-07 13:03 | 33.64163 | -84.42735 | 1035 ft | 0 kts | 180° |
| 2026-05-07 13:05 | 33.64149 | -84.42735 | 1035 ft | 9 kts | 180° |
| 2026-05-07 13:06 | 33.64061 | -84.42767 | 1035 ft | 14 kts | 204° |
| 2026-05-07 13:06 | 33.63972 | -84.42806 | 1035 ft | 13 kts | 191° |
| 2026-05-07 13:06 | 33.63881 | -84.42808 | 1035 ft | 14 kts | 178° |
| 2026-05-07 13:06 | 33.63778 | -84.42807 | 1035 ft | 15 kts | 180° |
| 2026-05-07 13:07 | 33.63670 | -84.42777 | 1035 ft | 14 kts | 129° |
| 2026-05-07 13:07 | 33.63658 | -84.42662 | 1036 ft | 17 kts | 89° |
| 2026-05-07 13:07 | 33.63658 | -84.42486 | 1036 ft | 25 kts | 90° |
| 2026-05-07 13:07 | 33.63658 | -84.42279 | 1036 ft | 24 kts | 90° |
| 2026-05-07 13:08 | 33.63657 | -84.42084 | 1036 ft | 23 kts | 90° |
| 2026-05-07 13:08 | 33.63657 | -84.41900 | 1035 ft | 22 kts | 90° |
| 2026-05-07 13:08 | 33.63655 | -84.41724 | 1035 ft | 21 kts | 90° |
| 2026-05-07 13:08 | 33.63661 | -84.41555 | 1035 ft | 19 kts | 88° |
| 2026-05-07 13:09 | 33.63664 | -84.41399 | 1035 ft | 18 kts | 87° |
| 2026-05-07 13:09 | 33.63664 | -84.41251 | 1035 ft | 17 kts | 90° |
| 2026-05-07 13:09 | 33.63658 | -84.41117 | 1035 ft | 12 kts | 96° |
| 2026-05-07 13:09 | 33.63619 | -84.41047 | 1035 ft | 10 kts | 156° |
| 2026-05-07 13:10 | 33.63578 | -84.41038 | 1035 ft | 3 kts | 177° |
| 2026-05-07 13:10 | 33.63569 | -84.41038 | 1035 ft | 0 kts | 179° |
| 2026-05-07 13:10 | 33.63563 | -84.41038 | 1035 ft | 6 kts | 181° |
| 2026-05-07 13:10 | 33.63478 | -84.41064 | 1035 ft | 17 kts | 226° |
| 2026-05-07 13:11 | 33.63467 | -84.41123 | 1034 ft | 0 kts | 270° |
| 2026-05-07 13:11 | 33.63467 | -84.41127 | 1034 ft | 3 kts | 270° |
| 2026-05-07 13:11 | 33.63473 | -84.41369 | 1035 ft | 66 kts | 271° |
| 2026-05-07 13:11 | 33.63470 | -84.42192 | 1036 ft | 128 kts | 270° |
| 2026-05-07 13:12 | 33.63468 | -84.43482 | 1083 ft | 171 kts | 269° |
| 2026-05-07 13:12 | 33.63427 | -84.44887 | 1743 ft | 166 kts | 266° |
| 2026-05-07 13:12 | 33.63311 | -84.46250 | 2451 ft | 165 kts | 263° |
| 2026-05-07 13:12 | 33.63224 | -84.47646 | 2983 ft | 173 kts | 268° |
| 2026-05-07 13:13 | 33.63212 | -84.49177 | 3310 ft | 195 kts | 271° |
| 2026-05-07 13:13 | 33.63256 | -84.50876 | 3678 ft | 212 kts | 272° |
| 2026-05-07 13:13 | 33.63318 | -84.52704 | 4051 ft | 229 kts | 272° |
| 2026-05-07 13:13 | 33.63380 | -84.54672 | 4565 ft | 239 kts | 272° |
| 2026-05-07 13:14 | 33.63436 | -84.56712 | 5168 ft | 251 kts | 272° |
| 2026-05-07 13:14 | 33.63469 | -84.58889 | 5645 ft | 271 kts | 270° |
| 2026-05-07 13:14 | 33.63212 | -84.61185 | 6104 ft | 288 kts | 251° |
| 2026-05-07 13:14 | 33.62224 | -84.63351 | 6535 ft | 307 kts | 232° |
| 2026-05-07 13:15 | 33.60656 | -84.65182 | 6940 ft | 325 kts | 217° |
| 2026-05-07 13:15 | 33.58640 | -84.66544 | 7338 ft | 341 kts | 203° |
| 2026-05-07 13:15 | 33.56427 | -84.67448 | 8414 ft | 332 kts | 197° |
| 2026-05-07 13:15 | 33.54211 | -84.68160 | 9395 ft | 328 kts | 194° |
| 2026-05-07 13:16 | 33.51968 | -84.68734 | 10108 ft | 333 kts | 191° |
| 2026-05-07 13:16 | 33.49625 | -84.69073 | 10545 ft | 346 kts | 183° |
| 2026-05-07 13:16 | 33.47178 | -84.68994 | 10982 ft | 357 kts | 174° |
| 2026-05-07 13:16 | 33.44715 | -84.68485 | 11584 ft | 362 kts | 166° |
| 2026-05-07 13:17 | 33.42293 | -84.67562 | 12143 ft | 368 kts | 161° |
| 2026-05-07 13:17 | 33.39863 | -84.66597 | 12855 ft | 370 kts | 163° |
| 2026-05-07 13:17 | 33.37375 | -84.65851 | 13420 ft | 375 kts | 168° |
| 2026-05-07 13:17 | 33.34802 | -84.65306 | 14070 ft | 377 kts | 171° |
| 2026-05-07 13:18 | 33.32204 | -84.64837 | 14726 ft | 378 kts | 171° |
| 2026-05-07 13:18 | 33.29596 | -84.64357 | 15377 ft | 380 kts | 171° |
| 2026-05-07 13:18 | 33.26988 | -84.63833 | 16028 ft | 380 kts | 170° |
| 2026-05-07 13:18 | 33.24385 | -84.63256 | 16680 ft | 381 kts | 169° |
| 2026-05-07 13:19 | 33.21785 | -84.62640 | 17330 ft | 381 kts | 168° |
| 2026-05-07 13:19 | 33.19192 | -84.62006 | 17979 ft | 380 kts | 168° |
| 2026-05-07 13:19 | 33.16602 | -84.61368 | 18631 ft | 380 kts | 168° |
| 2026-05-07 13:19 | 33.14015 | -84.60736 | 19284 ft | 378 kts | 168° |
| 2026-05-07 13:20 | 33.11443 | -84.60116 | 19933 ft | 377 kts | 168° |
| 2026-05-07 13:20 | 33.08876 | -84.59504 | 20585 ft | 375 kts | 168° |
| 2026-05-07 13:20 | 33.06329 | -84.58896 | 21236 ft | 372 kts | 168° |
| 2026-05-07 13:20 | 33.03795 | -84.58291 | 21886 ft | 370 kts | 168° |
| 2026-05-07 13:21 | 33.01283 | -84.57690 | 22533 ft | 366 kts | 168° |
| 2026-05-07 13:21 | 32.98796 | -84.57092 | 23187 ft | 363 kts | 168° |
| 2026-05-07 13:21 | 32.96334 | -84.56502 | 23835 ft | 359 kts | 168° |
| 2026-05-07 13:21 | 32.93903 | -84.55922 | 24484 ft | 354 kts | 168° |
| 2026-05-07 13:22 | 32.91508 | -84.55353 | 25137 ft | 349 kts | 168° |
| 2026-05-07 13:22 | 32.89150 | -84.54791 | 25779 ft | 343 kts | 168° |
| 2026-05-07 13:22 | 32.86835 | -84.54239 | 26413 ft | 336 kts | 168° |
| 2026-05-07 13:22 | 32.84558 | -84.53696 | 26898 ft | 335 kts | 168° |
| 2026-05-07 13:23 | 32.82265 | -84.53150 | 27235 ft | 337 kts | 168° |
| 2026-05-07 13:23 | 32.79959 | -84.52604 | 27567 ft | 339 kts | 168° |
| 2026-05-07 13:23 | 32.77641 | -84.52055 | 27898 ft | 341 kts | 168° |
| 2026-05-07 13:23 | 32.75309 | -84.51504 | 28219 ft | 343 kts | 168° |
| 2026-05-07 13:24 | 32.72964 | -84.50948 | 28508 ft | 345 kts | 168° |
| 2026-05-07 13:24 | 32.70604 | -84.50386 | 28821 ft | 347 kts | 168° |
| 2026-05-07 13:24 | 32.68233 | -84.49821 | 29100 ft | 349 kts | 168° |
| 2026-05-07 13:24 | 32.65831 | -84.49249 | 29300 ft | 354 kts | 168° |
| 2026-05-07 13:25 | 32.63402 | -84.48673 | 29502 ft | 359 kts | 168° |
| 2026-05-07 13:25 | 32.60940 | -84.48090 | 29701 ft | 363 kts | 168° |
| 2026-05-07 13:25 | 32.58441 | -84.47501 | 29824 ft | 369 kts | 169° |
| 2026-05-07 13:25 | 32.55900 | -84.46904 | 29955 ft | 375 kts | 168° |
| 2026-05-07 13:26 | 32.53315 | -84.46296 | 30082 ft | 382 kts | 169° |
| 2026-05-07 13:26 | 32.50692 | -84.45681 | 30210 ft | 387 kts | 169° |
| 2026-05-07 13:26 | 32.48029 | -84.45053 | 30335 ft | 393 kts | 168° |
| 2026-05-07 13:26 | 32.45325 | -84.44413 | 30462 ft | 399 kts | 168° |
| 2026-05-07 13:27 | 32.42583 | -84.43764 | 30588 ft | 405 kts | 168° |
| 2026-05-07 13:27 | 32.39802 | -84.43109 | 30715 ft | 410 kts | 169° |
| 2026-05-07 13:27 | 32.36984 | -84.42446 | 30840 ft | 416 kts | 169° |
| 2026-05-07 13:27 | 32.34127 | -84.41775 | 30968 ft | 421 kts | 169° |
| 2026-05-07 13:28 | 32.31233 | -84.41097 | 31094 ft | 426 kts | 169° |
| 2026-05-07 13:28 | 32.28302 | -84.40436 | 31220 ft | 431 kts | 170° |
| 2026-05-07 13:28 | 32.25321 | -84.39858 | 31347 ft | 436 kts | 171° |
| 2026-05-07 13:28 | 32.22300 | -84.39339 | 31483 ft | 441 kts | 172° |
| 2026-05-07 13:29 | 32.19255 | -84.38846 | 31726 ft | 442 kts | 172° |
| 2026-05-07 13:29 | 32.16208 | -84.38355 | 32042 ft | 442 kts | 172° |
| 2026-05-07 13:29 | 32.13162 | -84.37853 | 32373 ft | 442 kts | 172° |
| 2026-05-07 13:29 | 32.10123 | -84.37336 | 32698 ft | 441 kts | 172° |
| 2026-05-07 13:30 | 32.07085 | -84.36806 | 33024 ft | 440 kts | 171° |
| 2026-05-07 13:30 | 32.04058 | -84.36275 | 33346 ft | 440 kts | 171° |
| 2026-05-07 13:30 | 32.01031 | -84.35740 | 33661 ft | 439 kts | 171° |
| 2026-05-07 13:30 | 31.98013 | -84.35206 | 33970 ft | 438 kts | 171° |
| 2026-05-07 13:31 | 31.94999 | -84.34674 | 34270 ft | 438 kts | 171° |
| 2026-05-07 13:31 | 31.91989 | -84.34145 | 34561 ft | 437 kts | 171° |
| 2026-05-07 13:31 | 31.88987 | -84.33620 | 34844 ft | 436 kts | 172° |
| 2026-05-07 13:31 | 31.85976 | -84.33097 | 34982 ft | 440 kts | 172° |
| 2026-05-07 13:32 | 31.79847 | -84.32038 | 35011 ft | 450 kts | 172° |
| 2026-05-07 13:32 | 31.73589 | -84.30958 | 35010 ft | 458 kts | 172° |
| 2026-05-07 13:33 | 31.67230 | -84.29858 | 35008 ft | 465 kts | 171° |
| 2026-05-07 13:33 | 31.60900 | -84.28757 | 35006 ft | 451 kts | 171° |
| 2026-05-07 13:34 | 31.51646 | -84.27147 | 35006 ft | 447 kts | 172° |
| 2026-05-07 13:35 | 31.46538 | -84.26264 | 35006 ft | 447 kts | 172° |
| 2026-05-07 13:35 | 31.40385 | -84.25209 | 35011 ft | 447 kts | 172° |
| 2026-05-07 13:36 | 31.34242 | -84.24147 | 35010 ft | 446 kts | 172° |
| 2026-05-07 13:36 | 31.28092 | -84.23080 | 35009 ft | 446 kts | 172° |
| 2026-05-07 13:37 | 31.21945 | -84.22023 | 35011 ft | 446 kts | 172° |
| 2026-05-07 13:37 | 31.15799 | -84.20968 | 35007 ft | 446 kts | 172° |
| 2026-05-07 13:38 | 31.09653 | -84.19917 | 35009 ft | 446 kts | 172° |
| 2026-05-07 13:38 | 31.03502 | -84.18868 | 35011 ft | 447 kts | 172° |
| 2026-05-07 13:39 | 30.97354 | -84.17815 | 35009 ft | 447 kts | 172° |
| 2026-05-07 13:39 | 30.91204 | -84.16765 | 35008 ft | 447 kts | 172° |
| 2026-05-07 13:40 | 30.85052 | -84.15718 | 35009 ft | 447 kts | 172° |
| 2026-05-07 13:40 | 30.78900 | -84.14670 | 35011 ft | 447 kts | 172° |
| 2026-05-07 13:41 | 30.72749 | -84.13621 | 35011 ft | 447 kts | 172° |
| 2026-05-07 13:41 | 30.66636 | -84.12585 | 35013 ft | 447 kts | 172° |
| 2026-05-07 13:42 | 30.60437 | -84.11533 | 35017 ft | 447 kts | 172° |
| 2026-05-07 13:42 | 30.54281 | -84.10484 | 35014 ft | 447 kts | 172° |
| 2026-05-07 13:43 | 30.48126 | -84.09447 | 35019 ft | 447 kts | 172° |
| 2026-05-07 13:43 | 30.41975 | -84.08408 | 35013 ft | 447 kts | 172° |
| 2026-05-07 13:44 | 30.35931 | -84.06827 | 35014 ft | 446 kts | 158° |
| 2026-05-07 13:44 | 30.30310 | -84.03903 | 35008 ft | 446 kts | 155° |
| 2026-05-07 13:45 | 30.24659 | -84.00931 | 35008 ft | 446 kts | 155° |
| 2026-05-07 13:45 | 30.19010 | -83.97964 | 35010 ft | 446 kts | 155° |
| 2026-05-07 13:46 | 30.13355 | -83.94998 | 35009 ft | 446 kts | 155° |
| 2026-05-07 13:46 | 30.07701 | -83.92036 | 35008 ft | 446 kts | 155° |
| 2026-05-07 13:47 | 30.02054 | -83.89075 | 35011 ft | 446 kts | 155° |
| 2026-05-07 13:47 | 29.96399 | -83.86116 | 35006 ft | 446 kts | 155° |
| 2026-05-07 13:48 | 29.90739 | -83.83166 | 35012 ft | 447 kts | 155° |
| 2026-05-07 13:48 | 29.85077 | -83.80212 | 35014 ft | 447 kts | 155° |
| 2026-05-07 13:49 | 29.79413 | -83.77258 | 35015 ft | 447 kts | 155° |
| 2026-05-07 13:49 | 29.73753 | -83.74304 | 35021 ft | 447 kts | 155° |
| 2026-05-07 13:50 | 29.68087 | -83.71360 | 35015 ft | 447 kts | 155° |
| 2026-05-07 13:50 | 29.62425 | -83.68419 | 35015 ft | 446 kts | 155° |
| 2026-05-07 13:51 | 29.56761 | -83.65488 | 35017 ft | 446 kts | 155° |
| 2026-05-07 13:51 | 29.51097 | -83.62558 | 35012 ft | 446 kts | 156° |
| 2026-05-07 13:52 | 29.45433 | -83.59629 | 35014 ft | 446 kts | 155° |
| 2026-05-07 13:52 | 29.39774 | -83.56702 | 35017 ft | 446 kts | 156° |
| 2026-05-07 13:53 | 29.34113 | -83.53778 | 35011 ft | 446 kts | 155° |
| 2026-05-07 13:53 | 29.28457 | -83.50859 | 35012 ft | 446 kts | 156° |
| 2026-05-07 13:54 | 29.22799 | -83.47952 | 35008 ft | 446 kts | 156° |
| 2026-05-07 13:54 | 29.17142 | -83.45043 | 35002 ft | 446 kts | 156° |
| 2026-05-07 13:55 | 29.11482 | -83.42138 | 35010 ft | 446 kts | 156° |
| 2026-05-07 13:55 | 29.05817 | -83.39234 | 35009 ft | 446 kts | 156° |
| 2026-05-07 13:56 | 29.00152 | -83.36332 | 35007 ft | 446 kts | 156° |
| 2026-05-07 13:56 | 28.94257 | -83.34188 | 35006 ft | 446 kts | 172° |
| 2026-05-07 13:57 | 28.88079 | -83.34202 | 35005 ft | 445 kts | 185° |
| 2026-05-07 13:57 | 28.81897 | -83.34792 | 35002 ft | 446 kts | 185° |
| 2026-05-07 13:58 | 28.75714 | -83.35354 | 35005 ft | 446 kts | 185° |
| 2026-05-07 13:58 | 28.69533 | -83.35926 | 35003 ft | 446 kts | 185° |
| 2026-05-07 13:59 | 28.63343 | -83.36503 | 35004 ft | 446 kts | 185° |
| 2026-05-07 13:59 | 28.57161 | -83.37067 | 35003 ft | 446 kts | 184° |
| 2026-05-07 14:00 | 28.50979 | -83.37636 | 34998 ft | 446 kts | 185° |
| 2026-05-07 14:00 | 28.44801 | -83.38221 | 35005 ft | 445 kts | 185° |
| 2026-05-07 14:01 | 28.38625 | -83.38795 | 34997 ft | 446 kts | 185° |
| 2026-05-07 14:01 | 28.32444 | -83.39357 | 34999 ft | 446 kts | 185° |
| 2026-05-07 14:02 | 28.26259 | -83.39925 | 35002 ft | 446 kts | 185° |
| 2026-05-07 14:02 | 28.20075 | -83.40493 | 35000 ft | 446 kts | 185° |
| 2026-05-07 14:03 | 28.13887 | -83.41062 | 35006 ft | 446 kts | 185° |
| 2026-05-07 14:03 | 28.07705 | -83.41712 | 35007 ft | 446 kts | 191° |
| 2026-05-07 14:03 | 28.04730 | -83.42677 | 35001 ft | 445 kts | 203° |
| 2026-05-07 14:04 | 28.02004 | -83.44319 | 35009 ft | 445 kts | 215° |
| 2026-05-07 14:04 | 27.99643 | -83.46568 | 35006 ft | 444 kts | 227° |
| 2026-05-07 14:04 | 27.97739 | -83.49315 | 35000 ft | 444 kts | 239° |
| 2026-05-07 14:05 | 27.95173 | -83.55656 | 34995 ft | 444 kts | 248° |
| 2026-05-07 14:05 | 27.92804 | -83.62111 | 34991 ft | 445 kts | 248° |
| 2026-05-07 14:06 | 27.90427 | -83.68573 | 34990 ft | 445 kts | 247° |
| 2026-05-07 14:06 | 27.88035 | -83.75039 | 34998 ft | 446 kts | 247° |
| 2026-05-07 14:07 | 27.85644 | -83.81504 | 35004 ft | 446 kts | 247° |
| 2026-05-07 14:07 | 27.83249 | -83.87968 | 35003 ft | 446 kts | 247° |
| 2026-05-07 14:08 | 27.80847 | -83.94427 | 35007 ft | 446 kts | 247° |
| 2026-05-07 14:08 | 27.78447 | -84.00887 | 35010 ft | 446 kts | 247° |
| 2026-05-07 14:09 | 27.76039 | -84.07349 | 35009 ft | 446 kts | 247° |
| 2026-05-07 14:09 | 27.73629 | -84.13805 | 35007 ft | 446 kts | 247° |
| 2026-05-07 14:10 | 27.71218 | -84.20259 | 35014 ft | 446 kts | 247° |
| 2026-05-07 14:10 | 27.68805 | -84.26707 | 35007 ft | 446 kts | 247° |
| 2026-05-07 14:11 | 27.66393 | -84.33158 | 35009 ft | 446 kts | 247° |
| 2026-05-07 14:11 | 27.63975 | -84.39606 | 35012 ft | 446 kts | 247° |
| 2026-05-07 14:12 | 27.61553 | -84.46046 | 35010 ft | 446 kts | 247° |
| 2026-05-07 14:12 | 27.59129 | -84.52486 | 35007 ft | 446 kts | 247° |
| 2026-05-07 14:13 | 27.56695 | -84.58920 | 35007 ft | 446 kts | 247° |
| 2026-05-07 14:13 | 27.54255 | -84.65350 | 35011 ft | 446 kts | 247° |
| 2026-05-07 14:14 | 27.51788 | -84.71766 | 35011 ft | 446 kts | 242° |
| 2026-05-07 14:14 | 27.48063 | -84.77303 | 35010 ft | 445 kts | 221° |
| 2026-05-07 14:15 | 27.42853 | -84.80994 | 35001 ft | 445 kts | 201° |
| 2026-05-07 14:15 | 27.37047 | -84.83404 | 34996 ft | 445 kts | 200° |
| 2026-05-07 14:16 | 27.31223 | -84.85797 | 35001 ft | 446 kts | 200° |
| 2026-05-07 14:16 | 27.25396 | -84.88183 | 35004 ft | 446 kts | 200° |
| 2026-05-07 14:17 | 27.19571 | -84.90580 | 35009 ft | 446 kts | 200° |
| 2026-05-07 14:17 | 27.14728 | -84.92578 | 35002 ft | 446 kts | 200° |
| 2026-05-07 14:18 | 27.08859 | -84.94986 | 35007 ft | 446 kts | 200° |
| 2026-05-07 14:18 | 27.03025 | -84.97372 | 35005 ft | 446 kts | 200° |
| 2026-05-07 14:19 | 26.97193 | -84.99762 | 35009 ft | 446 kts | 200° |
| 2026-05-07 14:19 | 26.91396 | -85.02133 | 35008 ft | 446 kts | 200° |
| 2026-05-07 14:20 | 26.85560 | -85.04517 | 35013 ft | 446 kts | 200° |
| 2026-05-07 14:20 | 26.79729 | -85.06902 | 35010 ft | 446 kts | 200° |
| 2026-05-07 14:21 | 26.73890 | -85.09288 | 35010 ft | 446 kts | 200° |
| 2026-05-07 14:21 | 26.68055 | -85.11662 | 35011 ft | 446 kts | 200° |
| 2026-05-07 14:22 | 26.62220 | -85.14033 | 35013 ft | 446 kts | 200° |
| 2026-05-07 14:22 | 26.56378 | -85.16400 | 35014 ft | 446 kts | 200° |
| 2026-05-07 14:23 | 26.50541 | -85.18768 | 35015 ft | 446 kts | 200° |
| 2026-05-07 14:23 | 26.44703 | -85.21141 | 35014 ft | 446 kts | 200° |
| 2026-05-07 14:24 | 26.38842 | -85.23416 | 35014 ft | 446 kts | 194° |
| 2026-05-07 14:24 | 26.32697 | -85.24324 | 35012 ft | 446 kts | 185° |
| 2026-05-07 14:25 | 26.26515 | -85.24956 | 35013 ft | 446 kts | 185° |
| 2026-05-07 14:25 | 26.20336 | -85.25604 | 35013 ft | 446 kts | 185° |
| 2026-05-07 14:26 | 26.14152 | -85.26255 | 35012 ft | 446 kts | 185° |
| 2026-05-07 14:26 | 26.07968 | -85.26891 | 35010 ft | 446 kts | 185° |
| 2026-05-07 14:27 | 26.01784 | -85.27535 | 35013 ft | 446 kts | 185° |
| 2026-05-07 14:27 | 25.95596 | -85.28172 | 35013 ft | 446 kts | 185° |
| 2026-05-07 14:28 | 25.89412 | -85.28805 | 35015 ft | 446 kts | 185° |
| 2026-05-07 14:28 | 25.83226 | -85.29443 | 35017 ft | 446 kts | 185° |
| 2026-05-07 14:29 | 25.77040 | -85.30083 | 35013 ft | 446 kts | 185° |
| 2026-05-07 14:29 | 25.70852 | -85.30717 | 35013 ft | 446 kts | 185° |
| 2026-05-07 14:30 | 25.64623 | -85.31352 | 35012 ft | 446 kts | 185° |
| 2026-05-07 14:30 | 25.58440 | -85.31991 | 35016 ft | 446 kts | 185° |
| 2026-05-07 14:31 | 25.52254 | -85.32635 | 35016 ft | 446 kts | 185° |
| 2026-05-07 14:31 | 25.46107 | -85.33266 | 35017 ft | 446 kts | 185° |
| 2026-05-07 14:32 | 25.39922 | -85.33897 | 35015 ft | 446 kts | 185° |
| 2026-05-07 14:32 | 25.33830 | -85.35128 | 35010 ft | 446 kts | 199° |
| 2026-05-07 14:33 | 25.28293 | -85.38186 | 35013 ft | 446 kts | 210° |
| 2026-05-07 14:33 | 25.22908 | -85.41592 | 35013 ft | 446 kts | 210° |
| 2026-05-07 14:34 | 25.17516 | -85.44988 | 35008 ft | 446 kts | 210° |
| 2026-05-07 14:34 | 25.12071 | -85.48274 | 35012 ft | 446 kts | 202° |
| 2026-05-07 14:35 | 25.06081 | -85.49929 | 35011 ft | 446 kts | 184° |
| 2026-05-07 14:35 | 24.99884 | -85.49966 | 35013 ft | 446 kts | 180° |
| 2026-05-07 14:36 | 24.93679 | -85.49968 | 35008 ft | 446 kts | 180° |
| 2026-05-07 14:36 | 24.87471 | -85.49978 | 35013 ft | 446 kts | 180° |
| 2026-05-07 14:37 | 24.81259 | -85.49981 | 35012 ft | 446 kts | 180° |
| 2026-05-07 14:37 | 24.71945 | -85.49972 | 35010 ft | 446 kts | 180° |
| 2026-05-07 14:38 | 24.65731 | -85.49971 | 35013 ft | 447 kts | 180° |
| 2026-05-07 14:38 | 24.59518 | -85.49977 | 35017 ft | 447 kts | 180° |
| 2026-05-07 14:39 | 24.53302 | -85.49976 | 35013 ft | 447 kts | 180° |
| 2026-05-07 14:39 | 24.47091 | -85.49981 | 35018 ft | 447 kts | 180° |
| 2026-05-07 14:40 | 24.40873 | -85.49988 | 35014 ft | 447 kts | 180° |
| 2026-05-07 14:40 | 24.34660 | -85.49985 | 35016 ft | 447 kts | 180° |
| 2026-05-07 14:41 | 24.28445 | -85.49993 | 35017 ft | 447 kts | 180° |
| 2026-05-07 14:41 | 24.22228 | -85.49997 | 35018 ft | 447 kts | 180° |
| 2026-05-07 14:42 | 24.16009 | -85.49996 | 35016 ft | 447 kts | 180° |
| 2026-05-07 14:42 | 24.09794 | -85.49995 | 35017 ft | 447 kts | 180° |
| 2026-05-07 14:43 | 24.03579 | -85.49993 | 35018 ft | 447 kts | 180° |
| 2026-05-07 14:43 | 23.97362 | -85.50032 | 35015 ft | 447 kts | 181° |
| 2026-05-07 14:44 | 23.91152 | -85.50325 | 35023 ft | 447 kts | 183° |
| 2026-05-07 14:44 | 23.84951 | -85.50706 | 35018 ft | 447 kts | 183° |
| 2026-05-07 14:45 | 23.78741 | -85.51050 | 35017 ft | 447 kts | 182° |
| 2026-05-07 14:45 | 23.72532 | -85.51338 | 35019 ft | 447 kts | 182° |
| 2026-05-07 14:46 | 23.66320 | -85.51615 | 35016 ft | 447 kts | 182° |
| 2026-05-07 14:46 | 23.60107 | -85.51912 | 35018 ft | 447 kts | 182° |
| 2026-05-07 14:47 | 23.53900 | -85.52217 | 35017 ft | 447 kts | 182° |
| 2026-05-07 14:47 | 23.47687 | -85.52519 | 35021 ft | 447 kts | 182° |
| 2026-05-07 14:48 | 23.41480 | -85.52818 | 35018 ft | 447 kts | 182° |
| 2026-05-07 14:48 | 23.35266 | -85.53115 | 35021 ft | 447 kts | 182° |
| 2026-05-07 14:49 | 23.29059 | -85.53417 | 35019 ft | 447 kts | 182° |
| 2026-05-07 14:49 | 23.22849 | -85.53705 | 35018 ft | 447 kts | 182° |
| 2026-05-07 14:50 | 23.16636 | -85.53994 | 35020 ft | 447 kts | 182° |
| 2026-05-07 14:50 | 23.10427 | -85.54301 | 35020 ft | 447 kts | 182° |
| 2026-05-07 14:51 | 23.04217 | -85.54608 | 35021 ft | 447 kts | 182° |
| 2026-05-07 14:51 | 22.98004 | -85.54901 | 35019 ft | 447 kts | 182° |
| 2026-05-07 14:52 | 22.91795 | -85.55194 | 35017 ft | 447 kts | 182° |
| 2026-05-07 14:52 | 22.85580 | -85.55488 | 35021 ft | 447 kts | 182° |
| 2026-05-07 14:53 | 22.79372 | -85.55786 | 35020 ft | 447 kts | 182° |
| 2026-05-07 14:53 | 22.73163 | -85.56089 | 35020 ft | 447 kts | 182° |
| 2026-05-07 14:54 | 22.66951 | -85.56396 | 35021 ft | 447 kts | 182° |
| 2026-05-07 14:54 | 22.60739 | -85.56699 | 35017 ft | 447 kts | 182° |
| 2026-05-07 14:55 | 22.54526 | -85.56996 | 35021 ft | 447 kts | 182° |
| 2026-05-07 14:55 | 22.48314 | -85.57279 | 35020 ft | 447 kts | 182° |
| 2026-05-07 14:56 | 22.42103 | -85.57576 | 35018 ft | 447 kts | 182° |
| 2026-05-07 14:56 | 22.35884 | -85.57879 | 35021 ft | 447 kts | 182° |
| 2026-05-07 14:57 | 22.29692 | -85.58347 | 35017 ft | 447 kts | 191° |
| 2026-05-07 14:57 | 22.26710 | -85.59259 | 35015 ft | 446 kts | 202° |
| 2026-05-07 14:57 | 22.23941 | -85.60760 | 35012 ft | 446 kts | 213° |
| 2026-05-07 14:58 | 22.20058 | -85.64378 | 35009 ft | 445 kts | 231° |
| 2026-05-07 14:58 | 22.16325 | -85.69708 | 35004 ft | 446 kts | 233° |
| 2026-05-07 14:59 | 22.11971 | -85.75904 | 35006 ft | 446 kts | 233° |
| 2026-05-07 14:59 | 22.08824 | -85.80369 | 35013 ft | 446 kts | 233° |
| 2026-05-07 15:00 | 22.05076 | -85.85705 | 35008 ft | 447 kts | 233° |
| 2026-05-07 15:00 | 22.01328 | -85.91046 | 35011 ft | 447 kts | 233° |
| 2026-05-07 15:01 | 21.97578 | -85.96382 | 35013 ft | 447 kts | 233° |
| 2026-05-07 15:01 | 21.93201 | -86.01104 | 35012 ft | 446 kts | 221° |
| 2026-05-07 15:02 | 21.88526 | -86.05502 | 35015 ft | 447 kts | 221° |
| 2026-05-07 15:02 | 21.83848 | -86.09906 | 35014 ft | 447 kts | 221° |
| 2026-05-07 15:03 | 21.79172 | -86.14308 | 35018 ft | 447 kts | 221° |
| 2026-05-07 15:03 | 21.74499 | -86.18699 | 34553 ft | 445 kts | 221° |
| 2026-05-07 15:04 | 21.72165 | -86.20894 | 33958 ft | 446 kts | 221° |
| 2026-05-07 15:04 | 21.69827 | -86.23088 | 33360 ft | 447 kts | 221° |
| 2026-05-07 15:04 | 21.67476 | -86.25292 | 32757 ft | 449 kts | 221° |
| 2026-05-07 15:04 | 21.65122 | -86.27505 | 32156 ft | 450 kts | 223° |
| 2026-05-07 15:05 | 21.63033 | -86.30007 | 31476 ft | 451 kts | 232° |
| 2026-05-07 15:05 | 21.61115 | -86.32685 | 30585 ft | 451 kts | 233° |
| 2026-05-07 15:05 | 21.59230 | -86.35348 | 29709 ft | 445 kts | 233° |
| 2026-05-07 15:05 | 21.57373 | -86.37977 | 28896 ft | 438 kts | 233° |
| 2026-05-07 15:06 | 21.55549 | -86.40561 | 28093 ft | 430 kts | 233° |
| 2026-05-07 15:06 | 21.53755 | -86.43103 | 27291 ft | 424 kts | 233° |
| 2026-05-07 15:06 | 21.51990 | -86.45605 | 26490 ft | 417 kts | 233° |
| 2026-05-07 15:06 | 21.50251 | -86.48072 | 25684 ft | 411 kts | 233° |
| 2026-05-07 15:07 | 21.48540 | -86.50501 | 24886 ft | 405 kts | 233° |
| 2026-05-07 15:07 | 21.46854 | -86.52895 | 24088 ft | 399 kts | 233° |
| 2026-05-07 15:07 | 21.45190 | -86.55259 | 23283 ft | 394 kts | 233° |
| 2026-05-07 15:07 | 21.43551 | -86.57589 | 22475 ft | 389 kts | 233° |
| 2026-05-07 15:08 | 21.41933 | -86.59890 | 21678 ft | 384 kts | 233° |
| 2026-05-07 15:08 | 21.40339 | -86.62157 | 20872 ft | 376 kts | 233° |
| 2026-05-07 15:08 | 21.38870 | -86.64432 | 20067 ft | 367 kts | 243° |
| 2026-05-07 15:08 | 21.37830 | -86.66859 | 19281 ft | 361 kts | 246° |
| 2026-05-07 15:09 | 21.36851 | -86.69318 | 18486 ft | 356 kts | 247° |
| 2026-05-07 15:09 | 21.35890 | -86.71746 | 17675 ft | 352 kts | 247° |
| 2026-05-07 15:09 | 21.34943 | -86.74145 | 16868 ft | 348 kts | 247° |
| 2026-05-07 15:09 | 21.34006 | -86.76519 | 16070 ft | 343 kts | 247° |
| 2026-05-07 15:10 | 21.33082 | -86.78864 | 15266 ft | 338 kts | 247° |
| 2026-05-07 15:10 | 21.32441 | -86.81258 | 14463 ft | 333 kts | 264° |
| 2026-05-07 15:10 | 21.32264 | -86.83715 | 13662 ft | 329 kts | 267° |
| 2026-05-07 15:10 | 21.32144 | -86.86150 | 12859 ft | 325 kts | 267° |
| 2026-05-07 15:11 | 21.32034 | -86.88552 | 12227 ft | 316 kts | 268° |
| 2026-05-07 15:11 | 21.32152 | -86.90819 | 12045 ft | 293 kts | 276° |
| 2026-05-07 15:11 | 21.32382 | -86.92892 | 12022 ft | 265 kts | 277° |
| 2026-05-07 15:11 | 21.32607 | -86.94819 | 12013 ft | 258 kts | 277° |
| 2026-05-07 15:12 | 21.32831 | -86.96723 | 11893 ft | 257 kts | 277° |
| 2026-05-07 15:12 | 21.33027 | -86.98615 | 11533 ft | 254 kts | 271° |
| 2026-05-07 15:12 | 21.32693 | -87.00453 | 11105 ft | 252 kts | 250° |
| 2026-05-07 15:12 | 21.32053 | -87.02195 | 10583 ft | 251 kts | 248° |
| 2026-05-07 15:13 | 21.31384 | -87.03916 | 10052 ft | 249 kts | 247° |
| 2026-05-07 15:13 | 21.30717 | -87.05624 | 9522 ft | 248 kts | 247° |
| 2026-05-07 15:13 | 21.30050 | -87.07322 | 8999 ft | 246 kts | 246° |
| 2026-05-07 15:13 | 21.29052 | -87.08779 | 8463 ft | 244 kts | 217° |
| 2026-05-07 15:14 | 21.27551 | -87.09578 | 7944 ft | 240 kts | 199° |
| 2026-05-07 15:14 | 21.25978 | -87.10135 | 7398 ft | 237 kts | 197° |
| 2026-05-07 15:14 | 21.24341 | -87.10340 | 6669 ft | 241 kts | 171° |
| 2026-05-07 15:14 | 21.22784 | -87.09677 | 5942 ft | 243 kts | 150° |
| 2026-05-07 15:15 | 21.21333 | -87.08724 | 5210 ft | 246 kts | 147° |
| 2026-05-07 15:15 | 21.19898 | -87.07743 | 4533 ft | 243 kts | 147° |
| 2026-05-07 15:15 | 21.18491 | -87.06778 | 3939 ft | 236 kts | 147° |
| 2026-05-07 15:15 | 21.17151 | -87.05842 | 3511 ft | 224 kts | 143° |
| 2026-05-07 15:16 | 21.16016 | -87.04722 | 3146 ft | 218 kts | 136° |
| 2026-05-07 15:16 | 21.14940 | -87.03622 | 2735 ft | 210 kts | 136° |
| 2026-05-07 15:16 | 21.13896 | -87.02563 | 2310 ft | 204 kts | 136° |
| 2026-05-07 15:16 | 21.12881 | -87.01535 | 2008 ft | 195 kts | 136° |
| 2026-05-07 15:17 | 21.11902 | -87.00541 | 2000 ft | 193 kts | 136° |
| 2026-05-07 15:17 | 21.10967 | -86.99526 | 1848 ft | 191 kts | 127° |
| 2026-05-07 15:17 | 21.10271 | -86.98332 | 1455 ft | 186 kts | 118° |
| 2026-05-07 15:17 | 21.09630 | -86.97163 | 1158 ft | 178 kts | 121° |
| 2026-05-07 15:18 | 21.08970 | -86.96059 | 1008 ft | 174 kts | 124° |
| 2026-05-07 15:18 | 21.08281 | -86.95002 | 932 ft | 171 kts | 127° |
| 2026-05-07 15:18 | 21.07581 | -86.93975 | 824 ft | 171 kts | 124° |
| 2026-05-07 15:18 | 21.06936 | -86.92936 | 737 ft | 163 kts | 121° |
| 2026-05-07 15:19 | 21.06323 | -86.91920 | 578 ft | 163 kts | 123° |
| 2026-05-07 15:19 | 21.05703 | -86.90913 | 449 ft | 161 kts | 124° |
| 2026-05-07 15:19 | 21.05068 | -86.89928 | 233 ft | 162 kts | 124° |
| 2026-05-07 15:19 | 21.04438 | -86.88955 | 66 ft | 154 kts | 124° |
| 2026-05-07 15:20 | 21.03890 | -86.88073 | 36 ft | 130 kts | 123° |
| 2026-05-07 15:20 | 21.03496 | -86.87435 | 36 ft | 71 kts | 123° |
| 2026-05-07 15:20 | 21.03394 | -86.87225 | 36 ft | 15 kts | 62° |
| 2026-05-07 15:20 | 21.03460 | -86.87174 | 33 ft | 0 kts | 28° |
| 2026-05-07 15:21 | 21.03461 | -86.87174 | 32 ft | 0 kts | 28° |
| 2026-05-07 15:21 | 21.03493 | -86.87150 | 31 ft | 10 kts | 37° |
| 2026-05-07 15:22 | 21.03551 | -86.87099 | 30 ft | 11 kts | 44° |
| 2026-05-07 15:22 | 21.03609 | -86.87051 | 29 ft | 9 kts | 33° |
| 2026-05-07 15:22 | 21.03624 | -86.87040 | 29 ft | 1 kts | 33° |
| 2026-05-07 15:22 | 21.03625 | -86.87040 | 29 ft | 0 kts | 34° |